createdAt,value
2023-03-06T00:00:56.945Z,58.66
2023-03-06T00:03:50.376Z,62.05
2023-03-06T00:06:17.455Z,65.80
2023-03-06T00:08:44.374Z,66.00
2023-03-06T00:11:15.431Z,61.77
2023-03-06T00:13:42.575Z,56.24
2023-03-06T00:16:09.621Z,54.40
2023-03-06T00:18:37.841Z,56.09
2023-03-06T00:21:08.068Z,57.27
2023-03-06T00:23:37.128Z,59.32
2023-03-06T00:26:08.774Z,62.74
2023-03-06T00:28:37.120Z,66.88
2023-03-06T00:31:04.362Z,63.97
2023-03-06T00:33:32.146Z,60.25
2023-03-06T00:35:59.146Z,56.52
2023-03-06T00:38:28.840Z,55.22
2023-03-06T00:40:56.049Z,56.35
2023-03-06T00:43:23.059Z,58.60
2023-03-06T00:45:50.355Z,59.96
2023-03-06T00:48:18.041Z,60.63
2023-03-06T00:50:45.031Z,64.50
2023-03-06T00:53:13.738Z,68.44
2023-03-06T00:55:44.561Z,63.22
2023-03-06T00:58:12.132Z,56.58
2023-03-06T01:00:39.928Z,53.38
2023-03-06T01:03:07.065Z,54.06
2023-03-06T01:05:37.556Z,55.85
2023-03-06T01:08:06.606Z,57.20
2023-03-06T01:10:35.225Z,58.32
2023-03-06T01:13:02.242Z,60.41
2023-03-06T01:15:29.394Z,61.90
2023-03-06T01:18:00.021Z,66.95
2023-03-06T01:20:27.594Z,68.69
2023-03-06T01:22:57.001Z,63.24
2023-03-06T01:25:25.898Z,57.97
2023-03-06T01:27:53.409Z,55.06
2023-03-06T01:30:21.599Z,56.54
2023-03-06T01:32:49.850Z,58.10
2023-03-06T01:35:56.922Z,60.05
2023-03-06T01:38:54.176Z,64.66
2023-03-06T01:42:01.312Z,67.76
2023-03-06T01:45:07.440Z,63.76
2023-03-06T01:47:34.679Z,59.15
2023-03-06T01:50:04.603Z,55.08
2023-03-06T01:52:36.876Z,56.47
2023-03-06T01:55:20.935Z,57.15
2023-03-06T01:57:55.778Z,58.81
2023-03-06T02:03:16.325Z,68.78
2023-03-06T02:05:45.539Z,64.54
2023-03-06T02:08:16.569Z,61.02
2023-03-06T02:10:56.416Z,59.80
2023-03-06T02:13:23.805Z,56.17
2023-03-06T02:15:51.365Z,55.63
2023-03-06T02:18:18.879Z,56.42
2023-03-06T02:21:00.597Z,58.87
2023-03-06T02:23:54.417Z,60.19
2023-03-06T02:26:22.289Z,65.59
2023-03-06T02:28:49.377Z,66.31
2023-03-06T02:31:27.232Z,61.78
2023-03-06T02:34:20.762Z,59.77
2023-03-06T02:36:56.648Z,54.74
2023-03-06T02:39:26.852Z,55.09
2023-03-06T02:41:54.483Z,56.49
2023-03-06T02:44:23.672Z,59.81
2023-03-06T02:46:50.690Z,60.87
2023-03-06T02:49:18.548Z,65.52
2023-03-06T02:51:46.195Z,65.28
2023-03-06T02:54:13.277Z,58.45
2023-03-06T02:56:40.449Z,57.08
2023-03-06T02:59:07.617Z,57.97
2023-03-06T03:01:34.814Z,59.43
2023-03-06T03:04:02.183Z,64.46
2023-03-06T03:06:29.648Z,65.27
2023-03-06T03:08:56.798Z,63.47
2023-03-06T03:11:23.968Z,59.52
2023-03-06T03:13:51.559Z,54.59
2023-03-06T03:16:18.823Z,55.17
2023-03-06T03:18:48.202Z,59.07
2023-03-06T03:21:15.565Z,59.53
2023-03-06T03:23:42.667Z,60.76
2023-03-06T03:26:19.485Z,65.73
2023-03-06T03:28:46.477Z,65.17
2023-03-06T03:31:14.119Z,63.18
2023-03-06T03:33:41.527Z,58.42
2023-03-06T03:36:09.359Z,53.61
2023-03-06T03:38:36.750Z,54.23
2023-03-06T03:41:05.106Z,56.22
2023-03-06T03:43:32.786Z,58.11
2023-03-06T03:46:00.695Z,60.57
2023-03-06T03:48:28.747Z,64.18
2023-03-06T03:50:55.898Z,67.59
2023-03-06T03:53:23.251Z,63.41
2023-03-06T03:55:50.581Z,58.98
2023-03-06T03:58:17.577Z,55.91
2023-03-06T04:00:45.183Z,56.05
2023-03-06T04:03:15.203Z,58.08
2023-03-06T04:05:42.499Z,59.65
2023-03-06T04:08:09.576Z,61.62
2023-03-06T04:10:39.006Z,68.21
2023-03-06T04:13:08.826Z,66.65
2023-03-06T04:15:37.252Z,61.65
2023-03-06T04:18:04.691Z,58.37
2023-03-06T04:20:31.589Z,56.43
2023-03-06T04:22:58.995Z,58.95
2023-03-06T04:25:26.148Z,59.20
2023-03-06T04:27:53.218Z,60.10
2023-03-06T04:30:20.516Z,64.54
2023-03-06T04:32:47.513Z,68.25
2023-03-06T04:35:14.459Z,64.88
2023-03-06T04:37:41.946Z,61.31
2023-03-06T04:40:18.473Z,55.28
2023-03-06T04:42:46.235Z,54.86
2023-03-06T04:45:13.877Z,56.21
2023-03-06T04:47:41.123Z,59.38
2023-03-06T04:50:09.344Z,61.39
2023-03-06T04:52:36.538Z,64.94
2023-03-06T04:55:09.031Z,67.23
2023-03-06T04:57:36.998Z,63.10
2023-03-06T05:00:12.631Z,56.25
2023-03-06T05:02:40.239Z,55.77
2023-03-06T05:05:07.792Z,57.58
2023-03-06T05:07:36.419Z,59.07
2023-03-06T05:10:04.861Z,60.22
2023-03-06T05:12:32.268Z,61.32
2023-03-06T05:14:59.500Z,65.02
2023-03-06T05:17:29.348Z,65.91
2023-03-06T05:19:56.529Z,64.87
2023-03-06T05:22:24.567Z,61.04
2023-03-06T05:24:52.217Z,56.26
2023-03-06T05:27:19.579Z,55.18
2023-03-06T05:29:47.243Z,57.33
2023-03-06T05:32:18.842Z,59.01
2023-03-06T05:34:46.045Z,60.64
2023-03-06T05:37:15.845Z,64.77
2023-03-06T05:39:44.151Z,67.22
2023-03-06T05:42:11.212Z,63.00
2023-03-06T05:44:38.786Z,58.50
2023-03-06T05:47:08.337Z,56.30
2023-03-06T05:49:37.149Z,57.20
2023-03-06T05:52:06.060Z,59.04
2023-03-06T05:54:36.787Z,60.68
2023-03-06T05:57:06.381Z,64.88
2023-03-06T05:59:34.096Z,68.09
2023-03-06T06:02:01.688Z,64.70
2023-03-06T06:04:31.637Z,61.77
2023-03-06T06:07:01.166Z,57.82
2023-03-06T06:09:29.207Z,55.28
2023-03-06T06:12:00.491Z,56.63
2023-03-06T06:14:35.555Z,58.04
2023-03-06T06:17:03.081Z,60.00
2023-03-06T06:19:31.317Z,64.75
2023-03-06T06:21:59.168Z,66.59
2023-03-06T06:24:27.279Z,63.91
2023-03-06T06:26:56.693Z,59.91
2023-03-06T06:29:26.176Z,55.48
2023-03-06T06:31:54.069Z,55.95
2023-03-06T06:34:22.792Z,58.19
2023-03-06T06:36:53.593Z,61.16
2023-03-06T06:39:23.984Z,66.08
2023-03-06T06:42:05.899Z,65.44
2023-03-06T06:44:40.386Z,61.18
2023-03-06T06:47:25.047Z,57.06
2023-03-06T06:49:55.099Z,54.52
2023-03-06T06:52:23.387Z,55.92
2023-03-06T06:54:50.822Z,59.42
2023-03-06T06:57:19.018Z,60.84
2023-03-06T06:59:46.321Z,66.23
2023-03-06T07:02:14.901Z,67.46
2023-03-06T07:05:00.302Z,63.36
2023-03-06T07:07:30.435Z,59.37
2023-03-06T07:09:58.336Z,55.23
2023-03-06T07:12:25.687Z,54.89
2023-03-06T07:14:56.509Z,58.63
2023-03-06T07:17:24.491Z,63.13
2023-03-06T07:19:51.713Z,63.90
2023-03-06T07:22:19.699Z,60.57
2023-03-06T07:24:47.633Z,56.08
2023-03-06T07:27:16.109Z,54.27
2023-03-06T07:30:20.078Z,56.69
2023-03-06T07:33:24.854Z,58.56
2023-03-06T07:36:14.101Z,66.10
2023-03-06T07:38:41.428Z,64.42
2023-03-06T07:41:13.826Z,61.51
2023-03-06T07:43:42.451Z,56.69
2023-03-06T07:46:11.511Z,57.00
2023-03-06T07:48:39.007Z,59.21
2023-03-06T07:51:13.796Z,60.52
2023-03-06T07:53:45.292Z,64.10
2023-03-06T07:56:35.617Z,63.91
2023-03-06T07:59:13.681Z,62.77
2023-03-06T08:01:41.145Z,59.31
2023-03-06T08:04:15.291Z,56.11
2023-03-06T08:06:42.813Z,56.64
2023-03-06T08:09:09.945Z,58.31
2023-03-06T08:11:36.845Z,64.26
2023-03-06T08:14:04.407Z,65.01
2023-03-06T08:16:31.754Z,61.10
2023-03-06T08:18:59.002Z,56.76
2023-03-06T08:21:29.463Z,55.80
2023-03-06T08:23:56.923Z,59.38
2023-03-06T08:26:27.894Z,58.63
2023-03-06T08:28:57.405Z,63.85
2023-03-06T08:31:32.769Z,65.69
2023-03-06T08:34:03.535Z,62.26
2023-03-06T08:36:30.981Z,55.71
2023-03-06T08:38:58.841Z,54.93
2023-03-06T08:41:26.885Z,57.77
2023-03-06T08:43:54.229Z,59.53
2023-03-06T08:46:24.271Z,60.39
2023-03-06T08:48:52.321Z,60.80
2023-03-06T08:51:20.508Z,66.38
2023-03-06T08:53:48.217Z,62.87
2023-03-06T08:56:24.880Z,59.53
2023-03-06T08:58:52.109Z,56.48
2023-03-06T09:01:28.619Z,58.69
2023-03-06T09:03:58.694Z,61.72
2023-03-06T09:06:27.985Z,64.07
2023-03-06T09:08:56.054Z,61.93
2023-03-06T09:11:24.977Z,58.05
2023-03-06T09:13:53.060Z,57.56
2023-03-06T09:16:22.996Z,59.93
2023-03-06T09:18:53.344Z,60.60
2023-03-06T09:21:22.045Z,62.27
2023-03-06T09:23:51.450Z,63.45
2023-03-06T09:26:19.207Z,58.75
2023-03-06T09:28:47.112Z,56.92
2023-03-06T09:31:20.276Z,59.13
2023-03-06T09:33:59.074Z,59.66
2023-03-06T09:36:26.733Z,62.51
2023-03-06T09:38:53.852Z,61.30
2023-03-06T09:41:43.457Z,57.65
2023-03-06T09:44:21.344Z,55.37
2023-03-06T09:47:11.642Z,57.17
2023-03-06T09:49:47.833Z,57.75
2023-03-06T09:52:18.436Z,58.75
2023-03-06T09:54:55.591Z,60.81
2023-03-06T09:57:44.144Z,61.18
2023-03-06T10:00:29.767Z,60.99
2023-03-06T10:03:25.872Z,60.73
2023-03-06T10:06:00.947Z,60.53
2023-03-06T10:08:39.317Z,61.47
2023-03-06T10:11:10.945Z,61.58
2023-03-06T10:13:46.759Z,61.78
2023-03-06T10:16:31.133Z,63.12
2023-03-06T10:19:11.119Z,58.08
2023-03-06T10:21:53.770Z,56.08
2023-03-06T10:24:39.823Z,56.68
2023-03-06T10:27:18.981Z,57.59
2023-03-06T10:30:02.545Z,58.71
2023-03-06T10:32:48.746Z,58.12
2023-03-06T10:35:31.340Z,57.78
2023-03-06T10:38:13.737Z,57.15
2023-03-06T10:41:09.790Z,57.41
2023-03-06T10:44:03.512Z,58.36
2023-03-06T10:46:43.800Z,58.10
2023-03-06T10:49:25.209Z,57.30
2023-03-06T10:52:06.729Z,56.06
2023-03-06T10:54:40.097Z,56.82
2023-03-06T10:57:26.413Z,56.72
2023-03-06T11:00:23.464Z,57.34
2023-03-06T11:03:07.662Z,57.73
2023-03-06T11:05:35.845Z,57.43
2023-03-06T11:08:04.179Z,56.41
2023-03-06T11:10:40.317Z,56.03
2023-03-06T11:13:23.578Z,55.86
2023-03-06T11:16:04.470Z,56.15
2023-03-06T11:18:39.862Z,55.31
2023-03-06T11:21:27.981Z,55.19
2023-03-06T11:24:03.022Z,54.86
2023-03-06T11:26:42.167Z,55.31
2023-03-06T11:29:54.874Z,54.51
2023-03-06T11:32:25.566Z,55.61
2023-03-06T11:34:56.729Z,55.55
2023-03-06T11:37:35.005Z,55.51
2023-03-06T11:40:12.487Z,55.84
2023-03-06T11:43:58.549Z,54.99
2023-03-06T11:47:10.916Z,55.13
2023-03-06T11:50:19.019Z,54.95
2023-03-06T11:52:57.730Z,54.50
2023-03-06T11:56:21.216Z,52.92
2023-03-06T11:59:23.726Z,51.73
2023-03-06T12:02:28.946Z,52.03
2023-03-06T12:05:34.243Z,51.96
2023-03-06T12:08:42.083Z,51.24
2023-03-06T12:11:33.491Z,52.12
2023-03-06T12:14:34.203Z,52.11
2023-03-06T12:17:07.699Z,52.38
2023-03-06T12:19:59.989Z,52.06
2023-03-06T12:22:58.013Z,52.75
2023-03-06T12:25:52.051Z,52.94
2023-03-06T12:28:57.191Z,53.07
2023-03-06T12:31:33.171Z,52.43
2023-03-06T12:34:19.624Z,52.17
2023-03-06T12:37:13.440Z,51.82
2023-03-06T12:39:50.072Z,52.19
2023-03-06T12:42:45.540Z,52.24
2023-03-06T12:45:35.683Z,52.61
2023-03-06T12:48:17.705Z,52.71
2023-03-06T12:50:46.402Z,52.87
2023-03-06T12:53:28.210Z,52.02
2023-03-06T12:56:05.476Z,52.09
2023-03-06T12:58:57.929Z,52.14
2023-03-06T13:01:49.794Z,52.01
2023-03-06T13:04:46.169Z,52.55
2023-03-06T13:07:44.219Z,52.74
2023-03-06T13:10:29.125Z,52.79
2023-03-06T13:13:05.577Z,53.49
2023-03-06T13:15:50.537Z,53.30
2023-03-06T13:18:23.736Z,53.71
2023-03-06T13:20:57.266Z,54.01
2023-03-06T13:23:33.321Z,53.68
2023-03-06T13:26:26.342Z,53.94
2023-03-06T13:28:58.192Z,54.07
2023-03-06T13:31:50.868Z,53.94
2023-03-06T13:34:38.991Z,53.49
2023-03-06T13:37:24.057Z,53.44
2023-03-06T13:40:00.347Z,53.53
2023-03-06T13:42:43.853Z,53.48
2023-03-06T13:45:46.764Z,53.84
2023-03-06T13:49:29.025Z,54.16
2023-03-06T13:53:14.433Z,53.83
2023-03-06T13:56:56.872Z,53.51
2023-03-06T14:00:42.545Z,53.86
2023-03-06T14:04:41.426Z,52.76
2023-03-06T14:08:22.944Z,53.35
2023-03-06T14:12:06.731Z,53.66
2023-03-06T14:15:53.330Z,53.66
2023-03-06T14:19:00.662Z,53.49
2023-03-06T14:22:30.446Z,53.85
2023-03-06T14:25:34.894Z,53.50
2023-03-06T14:28:42.447Z,53.93
2023-03-06T14:31:58.087Z,54.20
2023-03-06T14:35:27.946Z,53.85
2023-03-06T14:38:55.971Z,54.35
2023-03-06T14:42:45.260Z,54.40
2023-03-06T14:46:22.799Z,54.65
2023-03-06T14:50:18.383Z,53.65
2023-03-06T14:54:05.356Z,54.46
2023-03-06T14:57:55.035Z,54.58
2023-03-06T15:01:22.319Z,54.62
2023-03-06T15:04:52.344Z,55.21
2023-03-06T15:08:24.944Z,54.84
2023-03-06T15:12:10.358Z,55.05
2023-03-06T15:15:40.642Z,55.49
2023-03-06T15:19:42.809Z,54.22
2023-03-06T15:23:05.283Z,55.35
2023-03-06T15:27:02.210Z,56.57
2023-03-06T15:30:14.395Z,57.13
2023-03-06T15:33:30.763Z,58.43
2023-03-06T15:37:03.138Z,59.22
2023-03-06T15:40:28.861Z,60.02
2023-03-06T15:43:45.041Z,60.90
2023-03-06T15:47:16.142Z,61.13
2023-03-06T15:50:44.173Z,61.19
2023-03-06T15:54:12.880Z,61.93
2023-03-06T15:57:58.775Z,64.07
2023-03-06T16:01:45.509Z,65.80
2023-03-06T16:05:33.205Z,61.85
2023-03-06T16:09:18.580Z,53.85
2023-03-06T16:13:48.111Z,53.70
2023-03-06T16:17:15.121Z,56.02
2023-03-06T16:20:42.094Z,56.77
2023-03-06T16:24:14.795Z,57.57
2023-03-06T16:28:02.995Z,58.78
2023-03-06T16:31:49.666Z,59.15
2023-03-06T16:35:00.575Z,61.05
2023-03-06T16:38:08.482Z,62.04
2023-03-06T16:41:56.919Z,61.53
2023-03-06T16:45:44.011Z,57.86
2023-03-06T16:49:31.588Z,57.60
2023-03-06T16:53:18.364Z,60.66
2023-03-06T16:57:05.682Z,62.03
2023-03-06T17:00:52.586Z,64.68
2023-03-06T17:04:38.564Z,63.18
2023-03-06T17:08:25.177Z,56.70
2023-03-06T17:11:56.012Z,55.03
2023-03-06T17:15:42.802Z,57.99
2023-03-06T17:19:29.663Z,59.06
2023-03-06T17:23:19.267Z,61.06
2023-03-06T17:27:06.929Z,65.53
2023-03-06T17:30:53.759Z,61.00
2023-03-06T17:34:40.870Z,58.37
2023-03-06T17:38:27.829Z,59.20
2023-03-06T17:41:09.806Z,61.55
2023-03-06T17:43:59.168Z,64.47
2023-03-06T17:46:52.003Z,68.71
2023-03-06T17:50:01.486Z,61.72
2023-03-06T17:53:15.528Z,57.10
2023-03-06T17:56:37.551Z,57.39
2023-03-06T17:59:07.774Z,60.21
2023-03-06T18:01:37.038Z,60.93
2023-03-06T18:04:06.514Z,63.61
2023-03-06T18:06:36.337Z,65.43
2023-03-06T18:09:08.686Z,65.09
2023-03-06T18:11:38.118Z,63.27
2023-03-06T18:14:06.642Z,61.20
2023-03-06T18:16:33.998Z,57.66
2023-03-06T18:19:03.002Z,56.07
2023-03-06T18:21:32.021Z,57.46
2023-03-06T18:24:00.548Z,58.21
2023-03-06T18:26:31.683Z,59.94
2023-03-06T18:29:06.590Z,61.22
2023-03-06T18:31:36.087Z,64.75
2023-03-06T18:34:17.444Z,68.92
2023-03-06T18:36:47.677Z,66.65
2023-03-06T18:39:15.332Z,61.68
2023-03-06T18:41:42.479Z,57.81
2023-03-06T18:44:09.647Z,58.33
2023-03-06T18:46:39.633Z,59.25
2023-03-06T18:49:09.289Z,61.02
2023-03-06T18:51:37.985Z,63.40
2023-03-06T18:54:07.641Z,63.46
2023-03-06T18:56:35.328Z,62.45
2023-03-06T18:59:06.991Z,59.63
2023-03-06T19:02:17.237Z,59.05
2023-03-06T19:04:46.786Z,61.22
2023-03-06T19:07:15.015Z,63.69
2023-03-06T19:09:45.353Z,64.57
2023-03-06T19:12:18.470Z,63.76
2023-03-06T19:14:47.295Z,63.78
2023-03-06T19:17:14.587Z,62.04
2023-03-06T19:19:41.970Z,58.28
2023-03-06T19:22:12.633Z,55.91
2023-03-06T19:24:39.947Z,56.92
2023-03-06T19:27:07.892Z,58.70
2023-03-06T19:29:34.962Z,60.43
2023-03-06T19:32:02.499Z,61.12
2023-03-06T19:34:30.039Z,64.01
2023-03-06T19:36:58.194Z,66.12
2023-03-06T19:39:28.140Z,65.31
2023-03-06T19:41:56.773Z,63.07
2023-03-06T19:44:24.594Z,60.84
2023-03-06T19:46:54.028Z,57.37
2023-03-06T19:49:25.198Z,57.57
2023-03-06T19:51:52.699Z,59.20
2023-03-06T19:54:26.036Z,61.08
2023-03-06T19:56:57.650Z,64.84
2023-03-06T19:59:27.372Z,67.42
2023-03-06T20:01:54.465Z,64.05
2023-03-06T20:04:22.271Z,60.86
2023-03-06T20:06:56.679Z,58.83
2023-03-06T20:09:25.180Z,60.13
2023-03-06T20:11:52.574Z,60.85
2023-03-06T20:14:19.868Z,63.73
2023-03-06T20:16:47.286Z,67.97
2023-03-06T20:19:14.439Z,65.75
2023-03-06T20:21:41.599Z,63.16
2023-03-06T20:24:11.971Z,60.88
2023-03-06T20:26:39.413Z,57.23
2023-03-06T20:29:10.731Z,56.42
2023-03-06T20:31:39.279Z,57.99
2023-03-06T20:34:06.496Z,59.61
2023-03-06T20:36:37.333Z,61.66
2023-03-06T20:39:09.322Z,66.92
2023-03-06T20:41:36.677Z,66.92
2023-03-06T20:44:06.690Z,64.25
2023-03-06T20:47:25.665Z,61.66
2023-03-06T20:50:52.412Z,60.18
2023-03-06T20:54:25.957Z,56.08
2023-03-06T20:58:12.781Z,57.27
2023-03-06T21:01:47.094Z,59.80
2023-03-06T21:04:59.285Z,60.02
2023-03-06T21:08:47.011Z,66.03
2023-03-06T21:12:34.341Z,64.68
2023-03-06T21:16:23.774Z,64.27
2023-03-06T21:19:53.172Z,61.44
2023-03-06T21:23:41.408Z,57.07
2023-03-06T21:27:12.697Z,57.65
2023-03-06T21:30:21.891Z,60.05
2023-03-06T21:33:50.940Z,65.59
2023-03-06T21:37:38.090Z,66.13
2023-03-06T21:41:27.951Z,63.52
2023-03-06T21:45:15.321Z,61.01
2023-03-06T21:48:12.147Z,57.13
2023-03-06T21:51:37.122Z,58.83
2023-03-06T21:55:05.858Z,63.32
2023-03-06T21:58:39.520Z,62.72
2023-03-06T22:02:22.535Z,61.86
2023-03-06T22:05:31.267Z,57.53
2023-03-06T22:08:43.203Z,57.70
2023-03-06T22:12:00.106Z,60.05
2023-03-06T22:15:26.591Z,66.75
2023-03-06T22:17:56.336Z,66.12
2023-03-06T22:21:04.263Z,62.63
2023-03-06T22:23:39.300Z,59.23
2023-03-06T22:26:33.544Z,55.81
2023-03-06T22:29:41.503Z,56.83
2023-03-06T22:33:28.691Z,58.65
2023-03-06T22:37:16.031Z,60.07
2023-03-06T22:40:43.053Z,59.75
2023-03-06T22:43:50.810Z,65.47
2023-03-06T22:46:45.224Z,68.48
2023-03-06T22:49:15.174Z,64.49
2023-03-06T22:52:22.443Z,61.37
2023-03-06T22:55:32.952Z,58.82
2023-03-06T22:58:49.541Z,55.11
2023-03-06T23:02:02.133Z,56.83
2023-03-06T23:05:02.207Z,58.39
2023-03-06T23:08:11.064Z,59.99
2023-03-06T23:10:39.904Z,65.03
2023-03-06T23:13:08.387Z,67.20
2023-03-06T23:15:48.193Z,64.39
2023-03-06T23:18:20.679Z,61.02
2023-03-06T23:20:57.913Z,57.50
2023-03-06T23:24:24.584Z,55.70
2023-03-06T23:27:34.433Z,58.11
2023-03-06T23:30:31.934Z,60.21
2023-03-06T23:33:43.243Z,61.60
2023-03-06T23:36:14.857Z,67.46
2023-03-06T23:38:44.457Z,67.62
2023-03-06T23:41:14.514Z,64.26
2023-03-06T23:44:45.049Z,60.97
2023-03-06T23:48:13.383Z,55.54
2023-03-06T23:51:01.527Z,56.81
2023-03-06T23:53:32.791Z,58.78
2023-03-06T23:56:04.340Z,60.25
2023-03-06T23:58:34.270Z,61.40
